Time;durP1;ratioP1;P1;durP2;ratioP2;P2;SDS_P1;SDS_P2;PMS_P1;PMS_P2;Temp;Humidity;BMP_temperature;BMP_pressure;BME280_temperature;BME280_humidity;BME280_pressure;Samples;Min_cycle;Max_cycle;Signal;HPM_P1;HPM_P2
2024/03/15 00:01:10;;;;;;;36.47;18.60;;;;;;;7.82;100.00;97581.56;4970525;28;20027;-74
2024/03/15 00:03:56;;;;;;;35.45;19.10;;;;;;;7.81;100.00;97579.88;4970419;28;20042;-75
2024/03/15 00:06:29;;;;;;;44.33;22.17;;;;;;;7.84;100.00;97585.91;4970670;28;20034;-75
2024/03/15 00:09:04;;;;;;;39.25;21.73;;;;;;;7.86;100.00;97584.03;4952359;28;20031;-74
2024/03/15 00:11:40;;;;;;;37.58;21.65;;;;;;;7.87;100.00;97580.44;4961482;28;20065;-76
2024/03/15 00:14:17;;;;;;;35.45;19.25;;;;;;;7.84;100.00;97572.59;4970440;28;20033;-73
2024/03/15 00:16:45;;;;;;;36.38;19.17;;;;;;;7.84;100.00;97561.06;4962305;28;20562;-75
2024/03/15 00:19:11;;;;;;;35.55;18.83;;;;;;;7.81;100.00;97553.25;4970304;28;20085;-75
2024/03/15 00:21:43;;;;;;;33.70;18.80;;;;;;;7.82;100.00;97554.94;4961792;28;20031;-75
2024/03/15 00:24:12;;;;;;;31.30;17.75;;;;;;;7.79;100.00;97553.31;4951033;28;20020;-75
2024/03/15 00:27:06;;;;;;;34.13;18.10;;;;;;;7.81;100.00;97550.59;4951069;28;20554;-75
2024/03/15 00:29:55;;;;;;;33.42;17.70;;;;;;;7.78;100.00;97553.41;4948946;28;20067;-74
2024/03/15 00:32:23;;;;;;;31.67;19.13;;;;;;;7.79;100.00;97555.97;4944550;28;20503;-75
2024/03/15 00:35:08;;;;;;;31.73;17.98;;;;;;;7.81;100.00;97554.13;4935093;28;20043;-75
2024/03/15 00:37:43;;;;;;;34.47;18.13;;;;;;;7.73;100.00;97548.28;4958447;28;20035;-75
2024/03/15 00:40:23;;;;;;;30.85;17.98;;;;;;;7.72;100.00;97549.22;4952416;28;20038;-75
2024/03/15 00:42:51;;;;;;;29.40;16.52;;;;;;;7.71;100.00;97544.00;4968746;28;20081;-75
2024/03/15 00:45:19;;;;;;;27.80;16.63;;;;;;;7.63;100.00;97549.69;4950989;28;20031;-75
2024/03/15 00:47:55;;;;;;;31.23;17.83;;;;;;;7.56;100.00;97553.63;4967079;28;20127;-75
2024/03/15 00:50:34;;;;;;;31.25;17.40;;;;;;;7.53;100.00;97551.13;4971682;28;20027;-75
2024/03/15 00:53:10;;;;;;;31.02;17.02;;;;;;;7.51;100.00;97544.97;4962000;28;20023;-75
2024/03/15 00:55:55;;;;;;;33.47;19.55;;;;;;;7.53;100.00;97548.44;4971180;28;20035;-75
2024/03/15 00:58:32;;;;;;;30.88;17.95;;;;;;;7.55;100.00;97544.75;4954548;28;20039;-75
2024/03/15 01:01:00;;;;;;;34.63;18.02;;;;;;;7.54;100.00;97545.69;4959831;28;20038;-75
2024/03/15 01:03:31;;;;;;;33.42;18.55;;;;;;;7.46;100.00;97547.88;4931622;29;20063;-75
2024/03/15 01:06:23;;;;;;;31.42;18.33;;;;;;;7.53;100.00;97544.00;4934193;28;20106;-75
2024/03/15 01:09:07;;;;;;;34.15;19.10;;;;;;;7.54;100.00;97545.69;4961694;28;20035;-75
2024/03/15 01:11:36;;;;;;;33.22;17.98;;;;;;;7.58;100.00;97546.41;4973633;28;20043;-74
2024/03/15 01:14:12;;;;;;;34.95;18.52;;;;;;;7.62;100.00;97550.66;4971841;28;20109;-74
2024/03/15 01:16:47;;;;;;;39.67;21.40;;;;;;;7.61;100.00;97547.13;4958363;28;20035;-74
2024/03/15 01:19:32;;;;;;;39.30;21.50;;;;;;;7.59;100.00;97542.81;4947660;28;20050;-75
2024/03/15 01:22:32;;;;;;;36.97;18.67;;;;;;;7.59;100.00;97542.81;4971501;28;20071;-74
2024/03/15 01:25:06;;;;;;;31.13;17.25;;;;;;;7.52;100.00;97536.06;4936952;28;20526;-74
2024/03/15 01:27:43;;;;;;;35.20;16.65;;;;;;;7.52;100.00;97531.63;4952705;28;20031;-75
2024/03/15 01:30:30;;;;;;;25.08;14.00;;;;;;;7.51;100.00;97542.31;4957261;28;20420;-75
2024/03/15 01:32:56;;;;;;;23.90;12.45;;;;;;;7.40;100.00;97536.69;4962459;28;20498;-74
2024/03/15 01:35:51;;;;;;;24.95;13.55;;;;;;;7.37;100.00;97542.16;4929347;29;20028;-74
2024/03/15 01:38:23;;;;;;;25.65;13.02;;;;;;;7.33;100.00;97536.13;4966690;28;20096;-75
2024/03/15 01:40:54;;;;;;;22.55;13.48;;;;;;;7.35;100.00;97536.91;4974019;28;20031;-75
2024/03/15 01:43:35;;;;;;;25.33;14.10;;;;;;;7.34;100.00;97536.97;4928256;29;20122;-74
2024/03/15 01:46:06;;;;;;;24.10;13.55;;;;;;;7.30;100.00;97528.28;4955718;28;20110;-74
2024/03/15 01:48:36;;;;;;;25.77;14.02;;;;;;;7.35;100.00;97525.41;4963543;28;20450;-74
2024/03/15 01:51:11;;;;;;;27.25;13.45;;;;;;;7.40;100.00;97534.03;4956490;28;20058;-75
2024/03/15 01:53:39;;;;;;;25.98;14.27;;;;;;;7.40;100.00;97526.03;4957677;28;20035;-75
2024/03/15 01:56:27;;;;;;;25.45;14.18;;;;;;;7.39;100.00;97525.16;4939642;28;20045;-74
2024/03/15 01:59:11;;;;;;;28.75;15.40;;;;;;;7.39;100.00;97526.97;4972367;28;20078;-74
2024/03/15 02:01:39;;;;;;;28.50;15.32;;;;;;;7.34;100.00;97527.22;4945422;28;20023;-74
2024/03/15 02:04:08;;;;;;;30.73;15.18;;;;;;;7.32;100.00;97509.59;4961810;28;20039;-74
2024/03/15 02:06:39;;;;;;;27.58;15.52;;;;;;;7.35;100.00;97520.09;4933960;29;20042;-74
2024/03/15 02:09:07;;;;;;;29.30;15.80;;;;;;;7.37;100.00;97516.41;4937735;28;20082;-75
2024/03/15 02:11:43;;;;;;;;;;;;;;;;;;;;;
2024/03/15 02:14:19;;;;;;;28.45;15.63;;;;;;;7.28;100.00;97518.66;4963566;28;20037;-75
2024/03/15 02:17:08;;;;;;;26.83;15.10;;;;;;;7.40;100.00;97524.25;4972245;28;20432;-75
2024/03/15 02:19:39;;;;;;;24.08;14.00;;;;;;;7.39;100.00;97524.31;4971688;28;20061;-75
2024/03/15 02:22:10;;;;;;;24.80;13.60;;;;;;;7.30;100.00;97517.66;4971230;28;20034;-75
2024/03/15 02:24:40;;;;;;;28.63;14.82;;;;;;;7.30;100.00;97522.09;4973446;28;20459;-73
2024/03/15 02:27:13;;;;;;;23.73;13.18;;;;;;;7.24;100.00;97515.28;4969916;28;20058;-75
2024/03/15 02:29:56;;;;;;;23.70;13.10;;;;;;;7.21;100.00;97519.91;4934139;29;20452;-75
2024/03/15 02:32:30;;;;;;;23.77;13.55;;;;;;;7.27;100.00;97514.28;4952165;28;20122;-75
2024/03/15 02:34:58;;;;;;;25.65;13.18;;;;;;;7.20;100.00;97496.91;4945720;28;20031;-75
2024/03/15 02:37:33;;;;;;;23.50;13.13;;;;;;;7.28;100.00;97508.03;4972165;28;20034;-75
2024/03/15 02:40:01;;;;;;;23.95;13.07;;;;;;;7.23;100.00;97513.56;4961297;28;20050;-74
2024/03/15 02:42:49;;;;;;;26.35;13.63;;;;;;;7.24;100.00;97514.44;4971924;28;20034;-74
2024/03/15 02:45:24;;;;;;;21.63;13.00;;;;;;;7.20;100.00;97511.03;4951754;28;20118;-75
2024/03/15 02:48:01;;;;;;;21.23;12.98;;;;;;;7.09;100.00;97503.63;4936975;29;20035;-74
2024/03/15 02:50:34;;;;;;;26.33;13.90;;;;;;;7.17;100.00;97513.03;4936757;29;20118;-74
2024/03/15 02:53:04;;;;;;;22.90;13.32;;;;;;;7.12;100.00;97504.38;4968999;28;20035;-75
2024/03/15 02:55:32;;;;;;;22.10;12.70;;;;;;;7.12;100.00;97515.91;4972944;28;20502;-73
2024/03/15 02:58:21;;;;;;;23.48;13.75;;;;;;;7.09;100.00;97511.59;4963320;28;20047;-74
2024/03/15 03:01:17;;;;;;;34.05;15.60;;;;;;;7.08;100.00;97515.19;4954559;28;20052;-75
2024/03/15 03:04:07;;;;;;;33.80;15.25;;;;;;;7.12;100.00;97520.34;4939903;29;20439;-75
2024/03/15 03:06:51;;;;;;;29.63;15.05;;;;;;;7.09;100.00;97511.59;4945384;28;20031;-76
2024/03/15 03:09:24;;;;;;;30.30;14.77;;;;;;;7.04;100.00;97507.44;4951982;28;20029;-73
2024/03/15 03:12:01;;;;;;;27.17;14.52;;;;;;;7.01;100.00;97519.06;4952114;28;20058;-75
2024/03/15 03:14:33;;;;;;;28.27;14.45;;;;;;;6.96;100.00;97526.41;4936383;28;20090;-75
2024/03/15 03:17:05;;;;;;;;;;;;;;;6.97;100.00;97529.94;4954202;28;20058;-74
2024/03/15 03:19:41;;;;;;;29.10;14.50;;;;;;;6.79;100.00;97515.72;4951804;28;19977;-74
2024/03/15 03:22:22;;;;;;;29.05;14.10;;;;;;;6.72;100.00;97511.63;4960074;28;20394;-75
2024/03/15 03:24:56;;;;;;;30.10;14.90;;;;;;;6.80;100.00;97520.09;4972372;28;20038;-75
2024/03/15 03:27:26;;;;;;;28.25;14.95;;;;;;;6.76;100.00;97525.63;4972126;28;20030;-74
2024/03/15 03:29:51;;;;;;;33.58;15.77;;;;;;;6.66;100.00;97522.56;4948452;29;20557;-75
2024/03/15 03:32:35;;;;;;;29.67;16.58;;;;;;;6.60;100.00;97522.84;4952283;28;20061;-74
2024/03/15 03:35:06;;;;;;;30.10;14.82;;;;;;;6.50;100.00;97521.53;4960458;28;20027;-75
2024/03/15 03:37:32;;;;;;;29.05;14.77;;;;;;;6.38;100.00;97524.75;4955278;28;20057;-75
2024/03/15 03:40:04;;;;;;;26.67;15.05;;;;;;;6.36;100.00;97530.16;4956123;28;20023;-74
2024/03/15 03:42:33;;;;;;;26.23;13.85;;;;;;;6.33;100.00;97526.75;4951959;28;20123;-75
2024/03/15 03:45:15;;;;;;;29.63;13.48;;;;;;;6.30;100.00;97537.53;4932333;29;20043;-75
2024/03/15 03:47:53;;;;;;;26.92;14.93;;;;;;;6.35;100.00;97538.19;4944978;28;20054;-75
2024/03/15 03:50:28;;;;;;;25.20;13.85;;;;;;;6.32;100.00;97528.56;4930861;29;20118;-74
2024/03/15 03:53:07;;;;;;;;;;;;;;;;;;;;;
2024/03/15 03:55:40;;;;;;;27.35;14.50;;;;;;;6.26;100.00;97527.97;4967785;28;20355;-74
2024/03/15 03:58:28;;;;;;;27.83;14.95;;;;;;;6.28;100.00;97539.38;4955045;28;20046;-74
2024/03/15 04:01:09;;;;;;;26.95;13.90;;;;;;;6.27;100.00;97537.66;4967883;28;20033;-75
2024/03/15 04:03:43;;;;;;;25.40;14.38;;;;;;;6.18;100.00;97536.28;4950343;28;20047;-75
2024/03/15 04:06:15;;;;;;;31.45;16.10;;;;;;;6.15;100.00;97546.19;4951150;28;20478;-75
2024/03/15 04:08:46;;;;;;;38.70;19.67;;;;;;;6.13;100.00;97548.03;4942987;28;20102;-75
2024/03/15 04:11:19;;;;;;;45.65;20.60;;;;;;;6.08;100.00;97550.03;4952025;28;20059;-75
2024/03/15 04:14:06;;;;;;;43.17;19.98;;;;;;;5.95;100.00;97544.41;4936261;28;20035;-74
2024/03/15 04:16:39;;;;;;;40.25;20.13;;;;;;;5.91;100.00;97546.31;4936904;29;20138;-74
2024/03/15 04:22:05;;;;;;;46.58;21.08;;;;;;;5.78;100.00;97555.69;4944566;29;20043;-74
2024/03/15 04:24:38;;;;;;;45.75;20.15;;;;;;;5.80;100.00;97553.00;4935151;28;20031;-74
2024/03/15 04:27:12;;;;;;;41.03;20.02;;;;;;;5.86;100.00;97561.59;4935177;28;20514;-73
2024/03/15 04:29:58;;;;;;;36.47;17.83;;;;;;;5.91;100.00;97569.34;4950955;28;20027;-77
2024/03/15 04:32:28;;;;;;;47.33;20.85;;;;;;;5.90;100.00;97563.19;4942984;28;20050;-75
2024/03/15 04:35:06;;;;;;;40.50;19.33;;;;;;;5.99;100.00;97564.59;4935493;29;20031;-75
2024/03/15 04:37:38;;;;;;;45.97;20.05;;;;;;;6.07;100.00;97566.88;4961540;28;20480;-75
2024/03/15 04:40:27;;;;;;;36.25;17.70;;;;;;;6.07;100.00;97566.88;4950838;28;20122;-75
2024/03/15 04:43:07;;;;;;;34.17;18.00;;;;;;;5.90;100.00;97565.84;4957849;28;20395;-73
2024/03/15 04:45:50;;;;;;;;;;;;;;;;;;;;;
2024/03/15 04:48:21;;;;;;;25.27;13.07;;;;;;;5.93;100.00;97573.69;4963043;28;20037;-72
2024/03/15 04:50:52;;;;;;;26.23;13.15;;;;;;;5.86;100.00;97579.31;4970437;28;20057;-75
2024/03/15 04:53:25;;;;;;;28.00;13.90;;;;;;;5.81;100.00;97568.00;4970150;28;20022;-76
2024/03/15 04:55:50;;;;;;;30.40;14.48;;;;;;;5.84;100.00;97574.03;4962178;28;20025;-75
2024/03/15 04:58:25;;;;;;;31.27;14.93;;;;;;;5.88;100.00;97569.47;4955555;28;20574;-75
2024/03/15 05:00:51;;;;;;;27.90;13.07;;;;;;;5.91;100.00;97570.22;4973970;28;20077;-74
2024/03/15 05:03:33;;;;;;;31.30;15.13;;;;;;;5.99;100.00;97565.44;4973669;28;20431;-74
2024/03/15 05:06:14;;;;;;;;;;;;;;;;;;;;;
2024/03/15 05:08:59;;;;;;;;;;;;;;;;;;;;;
2024/03/15 05:11:38;;;;;;;107.45;46.03;;;;;;;6.17;100.00;97561.13;4972851;28;20031;-75
2024/03/15 05:14:06;;;;;;;34.75;16.13;;;;;;;6.28;100.00;97573.91;4967087;28;20058;-75
2024/03/15 05:16:34;;;;;;;29.60;16.58;;;;;;;6.32;100.00;97575.50;4962541;28;20034;-74
2024/03/15 05:19:00;;;;;;;42.38;20.75;;;;;;;6.36;100.00;97582.41;4939083;29;20035;-76
2024/03/15 05:21:33;;;;;;;43.45;22.25;;;;;;;6.40;100.00;97583.97;4937348;28;20035;-76
2024/03/15 05:24:31;;;;;;;45.78;22.38;;;;;;;6.39;100.00;97585.78;4950923;28;20038;-77
2024/03/15 05:27:09;;;;;;;62.72;32.65;;;;;;;6.43;100.00;97581.19;4946685;28;20479;-74
2024/03/15 05:29:44;;;;;;;47.38;24.08;;;;;;;6.43;100.00;97578.53;4949333;28;20027;-74
2024/03/15 05:32:21;;;;;;;55.95;27.63;;;;;;;6.39;100.00;97585.78;4943881;28;20042;-74
2024/03/15 05:34:59;;;;;;;57.75;28.60;;;;;;;6.39;100.00;97590.25;4957979;28;20483;-75
2024/03/15 05:37:28;;;;;;;53.22;26.58;;;;;;;6.41;100.00;97591.88;4956756;28;20054;-74
2024/03/15 05:39:59;;;;;;;62.00;29.17;;;;;;;6.47;100.00;97588.09;4962129;28;20073;-73
2024/03/15 05:42:36;;;;;;;49.45;24.50;;;;;;;6.47;100.00;97588.09;4949293;28;20045;-75
2024/03/15 05:45:03;;;;;;;37.88;19.63;;;;;;;6.53;100.00;97598.44;4960755;28;20031;-74
2024/03/15 05:47:34;;;;;;;35.58;17.90;;;;;;;6.57;100.00;97591.19;4972814;28;20050;-74
2024/03/15 05:50:12;;;;;;;28.35;14.75;;;;;;;6.67;100.00;97592.50;4951020;28;20098;-75
2024/03/15 05:53:00;;;;;;;;;;;;;;;;;;;;;
2024/03/15 05:55:34;;;;;;;37.50;19.67;;;;;;;7.16;100.00;97586.63;4964412;28;20035;-74
2024/03/15 05:58:34;;;;;;;26.35;13.88;;;;;;;7.49;100.00;97600.09;4964070;28;20534;-75
2024/03/15 06:01:05;;;;;;;23.83;11.88;;;;;;;7.67;100.00;97587.66;4955783;28;20480;-74
2024/03/15 06:03:41;;;;;;;20.27;11.73;;;;;;;7.82;100.00;97579.78;4940240;28;20043;-75
2024/03/15 06:06:12;;;;;;;23.60;12.48;;;;;;;8.01;100.00;97583.25;4961489;28;20138;-75
2024/03/15 06:08:47;;;;;;;19.05;11.82;;;;;;;8.22;100.00;97581.25;4947672;28;20023;-74
2024/03/15 06:11:30;;;;;;;24.85;13.02;;;;;;;8.37;100.00;97575.16;4964349;28;20023;-75
2024/03/15 06:13:59;;;;;;;17.60;11.38;;;;;;;8.44;100.00;97562.38;4939587;28;20035;-74
2024/03/15 06:16:28;;;;;;;33.08;15.00;;;;;;;8.48;100.00;97555.94;4960329;28;20031;-75
2024/03/15 06:19:28;;;;;;;17.02;9.32;;;;;;;8.59;100.00;97570.41;4967891;28;20055;-75
2024/03/15 06:22:30;;;;;;;29.08;13.27;;;;;;;8.63;100.00;97560.44;4956799;28;20043;-75
2024/03/15 06:25:06;;;;;;;17.02;8.80;;;;;;;8.69;100.00;97555.66;4960936;28;20398;-75
2024/03/15 06:27:32;;;;;;;24.95;12.52;;;;;;;8.77;100.00;97552.56;4962822;28;20420;-74
2024/03/15 06:30:12;;;;;;;39.72;18.50;;;;;;;8.79;100.00;97555.16;4960978;28;20082;-75
2024/03/15 06:32:46;;;;;;;43.58;24.63;;;;;;;8.71;100.00;97550.22;4940038;28;20035;-75
2024/03/15 06:35:27;;;;;;;65.93;36.70;;;;;;;8.71;100.00;97555.56;4964435;28;20025;-74
2024/03/15 06:38:27;;;;;;;47.60;27.77;;;;;;;8.76;100.00;97560.66;4967366;28;20026;-75
2024/03/15 06:47:04;;;;;;;45.47;25.75;;;;;;;9.11;100.00;97552.41;4968565;28;20034;-75
2024/03/15 06:49:44;;;;;;;42.60;24.67;;;;;;;9.20;100.00;97553.69;4950316;28;20104;-76
2024/03/15 06:52:34;;;;;;;42.00;26.92;;;;;;;9.31;100.00;97542.44;4955298;28;20027;-75
2024/03/15 06:55:10;;;;;;;35.97;22.45;;;;;;;9.47;100.00;97546.81;4954356;28;20503;-75
2024/03/15 06:57:48;;;;;;;31.77;18.45;;;;;;;9.75;100.00;97554.09;4952653;28;20130;-76
2024/03/15 07:00:40;;;;;;;37.72;20.92;;;;;;;9.85;100.00;97554.38;4944645;28;20027;-75
2024/03/15 07:03:10;;;;;;;36.03;22.27;;;;;;;9.93;100.00;97550.31;4968288;28;20027;-74
2024/03/15 07:05:42;;;;;;;35.58;20.40;;;;;;;9.96;100.00;97547.47;4953511;28;20101;-75
2024/03/15 07:08:31;;;;;;;27.87;17.53;;;;;;;10.12;100.00;97529.53;4967261;28;20030;-76
2024/03/15 07:11:00;;;;;;;28.10;16.38;;;;;;;10.41;100.00;97538.50;4938181;28;20070;-75
2024/03/15 07:13:31;;;;;;;25.83;15.82;;;;;;;10.75;100.00;97531.91;4935542;29;20093;-75
2024/03/15 07:16:02;;;;;;;55.13;29.48;;;;;;;10.96;100.00;97529.69;4957041;28;20510;-76
2024/03/15 07:18:45;;;;;;;33.88;17.17;;;;;;;11.42;100.00;97523.09;4964403;28;20054;-75
2024/03/15 07:24:05;;;;;;;22.38;13.50;;;;;;;11.75;100.00;97522.72;4965288;28;20090;-75
2024/03/15 07:26:31;;;;;;;27.98;14.18;;;;;;;11.82;100.00;97521.31;4935393;29;20099;-75
2024/03/15 07:29:06;;;;;;;24.83;13.15;;;;;;;11.87;100.00;97517.38;4939851;28;20027;-76
2024/03/15 07:31:38;;;;;;;27.70;13.65;;;;;;;11.91;100.00;97526.06;4954428;28;20035;-75
2024/03/15 07:34:34;;;;;;;;;;;;;;;;;;;;;
2024/03/15 07:37:05;;;;;;;25.30;13.18;;;;;;;11.75;100.00;97522.72;4962486;28;20046;-75
2024/03/15 07:39:46;;;;;;;30.77;14.45;;;;;;;11.60;100.00;97523.69;4935906;29;20062;-75
2024/03/15 07:42:35;;;;;;;31.40;15.40;;;;;;;11.36;100.00;97529.72;4936986;29;20045;-75
2024/03/15 07:45:18;;;;;;;;;;;;;;;;;;;;;
2024/03/15 07:48:00;;;;;;;28.65;16.95;;;;;;;10.92;100.00;97542.41;4959806;28;20054;-74
2024/03/15 07:50:31;;;;;;;26.40;15.73;;;;;;;11.12;100.00;97552.72;4962387;28;20061;-75
2024/03/15 07:53:24;;;;;;;;;;;;;;;;;;;;;
2024/03/15 07:55:55;;;;;;;30.58;19.02;;;;;;;10.73;100.00;97547.22;4954400;28;20093;-73
2024/03/15 07:58:23;;;;;;;30.40;16.85;;;;;;;11.00;100.00;97558.00;4951577;28;20053;-76
2024/03/15 08:01:07;;;;;;;32.40;16.35;;;;;;;10.94;100.00;97551.22;4959444;28;20522;-76
2024/03/15 08:03:37;;;;;;;27.02;14.70;;;;;;;10.81;100.00;97556.47;4951289;28;20039;-75
2024/03/15 08:06:25;;;;;;;29.90;16.27;;;;;;;11.16;100.00;97561.41;4953862;28;20538;-75
2024/03/15 08:08:57;;;;;;;24.42;14.57;;;;;;;11.47;100.00;97552.25;4943758;28;20034;-75
2024/03/15 08:11:33;;;;;;;28.00;14.43;;;;;;;11.76;100.00;97552.09;4970259;28;20030;-75
2024/03/15 08:14:10;;;;;;;23.98;14.65;;;;;;;12.01;100.00;97547.75;4970640;28;20023;-74
2024/03/15 08:16:50;;;;;;;25.33;15.30;;;;;;;11.96;100.00;97553.44;4943868;28;20039;-74
2024/03/15 08:19:15;;;;;;;26.30;15.18;;;;;;;11.97;100.00;97535.53;4967607;28;20113;-76
2024/03/15 08:21:51;;;;;;;26.58;16.80;;;;;;;11.96;100.00;97548.06;4942301;29;20118;-74
2024/03/15 08:24:21;;;;;;;28.00;16.58;;;;;;;12.46;100.00;97547.28;4963593;28;20402;-75
2024/03/15 08:26:54;;;;;;;32.30;18.33;;;;;;;12.91;100.00;97532.44;4966921;28;20030;-76
2024/03/15 08:29:22;;;;;;;36.42;17.70;;;;;;;13.27;100.00;97532.50;4970841;28;20106;-75
2024/03/15 08:31:56;;;;;;;33.80;18.88;;;;;;;13.43;100.00;97525.06;4947298;29;20055;-74
2024/03/15 08:34:24;;;;;;;65.43;35.60;;;;;;;13.85;100.00;97514.72;4955295;28;20054;-75
2024/03/15 08:36:57;;;;;;;36.70;20.15;;;;;;;14.22;100.00;97510.97;4970890;28;20470;-74
2024/03/15 08:39:33;;;;;;;29.00;17.42;;;;;;;14.73;100.00;97503.38;4969888;28;20023;-75
2024/03/15 08:42:04;;;;;;;41.45;21.42;;;;;;;15.48;100.00;97496.34;4947508;28;20104;-74
2024/03/15 08:44:52;;;;;;;40.90;19.98;;;;;;;15.52;100.00;97496.94;4966026;28;20114;-74
2024/03/15 08:47:22;;;;;;;37.80;21.77;;;;;;;16.00;100.00;97494.69;4964186;28;20057;-75
2024/03/15 08:49:57;;;;;;;;;;;;;;;;;;;;;
2024/03/15 08:52:31;;;;;;;37.13;18.88;;;;;;;16.00;100.00;97484.75;4954945;28;20034;-75
2024/03/15 08:55:01;;;;;;;29.55;15.85;;;;;;;16.69;100.00;97469.75;4937891;29;20034;-75
2024/03/15 08:57:36;;;;;;;25.67;15.27;;;;;;;16.84;89.06;97462.13;4945372;28;20042;-74
2024/03/15 09:00:12;;;;;;;38.45;20.88;;;;;;;17.65;95.10;97467.38;4972739;28;20038;-76
2024/03/15 09:02:45;;;;;;;40.00;22.73;;;;;;;17.84;96.83;97474.66;4963255;28;20034;-75
2024/03/15 09:05:16;;;;;;;34.95;19.58;;;;;;;17.82;87.46;97461.25;4961201;28;20399;-75
2024/03/15 09:08:11;;;;;;;32.70;17.70;;;;;;;19.36;80.55;97460.88;4966862;28;20058;-76
2024/03/15 09:10:40;;;;;;;32.70;14.80;;;;;;;21.11;63.24;97438.31;4957078;28;20282;-74
2024/03/15 09:13:18;;;;;;;19.80;12.07;;;;;;;21.07;53.62;97425.00;4961859;28;20541;-74
2024/03/15 09:15:55;;;;;;;22.35;12.40;;;;;;;19.87;56.07;97427.72;4956275;28;20031;-75
2024/03/15 09:18:21;;;;;;;19.42;12.82;;;;;;;21.55;55.25;97420.81;4937721;28;20042;-74
2024/03/15 09:21:04;;;;;;;18.95;13.02;;;;;;;23.35;51.05;97413.19;4954967;28;20106;-75
2024/03/15 09:23:47;;;;;;;20.23;11.90;;;;;;;22.47;50.31;97409.66;4941282;28;20041;-75
2024/03/15 09:26:33;;;;;;;24.60;11.10;;;;;;;20.62;53.79;97427.16;4954199;28;20030;-74
2024/03/15 09:29:29;;;;;;;;;;;;;;;;;;;;;
2024/03/15 09:32:03;;;;;;;21.52;11.88;;;;;;;19.79;61.12;97436.63;4952861;28;20034;-75
2024/03/15 09:34:32;;;;;;;15.13;10.27;;;;;;;19.34;60.78;97424.94;4944341;28;20027;-75
2024/03/15 09:37:23;;;;;;;18.42;10.10;;;;;;;19.03;62.29;97428.94;4955564;28;20066;-75
2024/03/15 09:39:57;;;;;;;14.32;9.60;;;;;;;18.10;61.35;97423.50;4954599;28;20043;-75
2024/03/15 09:42:28;;;;;;;16.25;10.48;;;;;;;17.53;68.26;97435.16;4972275;28;20054;-74
2024/03/15 09:44:57;;;;;;;18.08;11.35;;;;;;;17.72;75.22;97437.88;4965580;28;20570;-74
2024/03/15 09:47:37;;;;;;;23.58;12.45;;;;;;;17.81;81.05;97435.19;4944900;28;20032;-75
2024/03/15 09:50:41;;;;;;;16.83;9.57;;;;;;;17.90;72.13;97436.22;4950318;28;20034;-74
2024/03/15 09:53:16;;;;;;;16.20;9.07;;;;;;;17.80;61.50;97422.69;4940981;29;20031;-75
2024/03/15 09:56:02;;;;;;;18.23;10.30;;;;;;;18.27;61.96;97425.47;4960264;28;20042;-74
2024/03/15 09:58:31;;;;;;;21.15;9.30;;;;;;;18.44;60.74;97422.00;4696539;28;7870340;-75
2024/03/15 10:01:13;;;;;;;13.27;8.00;;;;;;;18.64;55.09;97398.47;4947025;28;20047;-75
2024/03/15 10:04:11;;;;;;;23.17;8.63;;;;;;;18.91;56.69;97407.47;4972592;28;20106;-75
2024/03/15 10:06:57;;;;;;;18.23;8.02;;;;;;;19.02;53.44;97397.41;4966303;28;20129;-75
2024/03/15 10:09:31;;;;;;;12.52;6.53;;;;;;;18.54;49.69;97384.94;4949919;28;20042;-75
2024/03/15 10:12:09;;;;;;;11.32;7.57;;;;;;;18.11;51.89;97395.44;4964261;28;20049;-74
2024/03/15 10:15:03;;;;;;;28.80;15.88;;;;;;;18.06;52.78;97392.28;4946686;28;20117;-74
2024/03/15 10:17:35;;;;;;;14.05;8.15;;;;;;;17.35;55.07;97405.22;4966288;28;20136;-75
2024/03/15 10:20:11;;;;;;;12.23;6.35;;;;;;;16.91;56.05;97405.72;4950292;28;20200;-75
2024/03/15 10:22:48;;;;;;;13.85;7.47;;;;;;;16.87;56.74;97398.88;4961126;28;20030;-74
2024/03/15 10:25:18;;;;;;;9.68;6.05;;;;;;;17.24;51.58;97387.31;4941744;28;20039;-75
2024/03/15 10:27:53;;;;;;;14.20;6.50;;;;;;;17.80;52.99;97394.75;4960316;28;20141;-75
2024/03/15 10:30:38;;;;;;;11.43;6.30;;;;;;;17.96;51.16;97391.47;4962832;28;20023;-75
2024/03/15 10:33:13;;;;;;;11.80;6.15;;;;;;;17.55;50.00;97385.38;4964498;28;20557;-75
2024/03/15 10:35:41;;;;;;;9.55;5.72;;;;;;;17.81;48.61;97382.94;4956897;28;20050;-74
2024/03/15 10:38:17;;;;;;;9.82;6.20;;;;;;;18.31;48.16;97362.75;4941671;28;20023;-75
2024/03/15 10:40:48;;;;;;;11.07;6.40;;;;;;;19.33;46.72;97377.97;4957503;28;20031;-75
2024/03/15 10:43:26;;;;;;;9.60;6.13;;;;;;;19.19;45.07;97364.06;4926911;28;20121;-74
2024/03/15 10:46:21;;;;;;;10.68;5.93;;;;;;;18.37;45.84;97356.72;4958464;28;20353;-74
2024/03/15 10:48:52;;;;;;;10.25;6.07;;;;;;;18.27;44.84;97355.06;4948553;28;20035;-75
2024/03/15 10:54:20;;;;;;;15.45;6.90;;;;;;;17.76;47.01;97369.84;4950627;28;20489;-75
2024/03/15 10:56:51;;;;;;;9.52;5.93;;;;;;;17.20;46.53;97364.22;4950835;28;20035;-76
2024/03/15 11:02:13;;;;;;;18.05;8.23;;;;;;;16.06;50.23;97360.09;4958026;28;20415;-74
2024/03/15 11:04:44;;;;;;;11.43;6.00;;;;;;;15.55;50.34;97373.53;4957581;28;20031;-74
2024/03/15 11:07:29;;;;;;;9.18;5.50;;;;;;;15.49;50.61;97375.88;4958705;28;20114;-75
2024/03/15 11:10:01;;;;;;;12.27;6.05;;;;;;;15.97;51.53;97369.00;4963449;28;20089;-74
2024/03/15 11:12:40;;;;;;;14.35;6.95;;;;;;;16.19;50.52;97376.09;4957510;28;20117;-75
2024/03/15 11:15:32;;;;;;;16.23;6.63;;;;;;;16.18;49.91;97367.13;4956827;28;20027;-75
2024/03/15 11:18:14;;;;;;;13.27;7.22;;;;;;;16.44;50.10;97364.00;4941096;28;20495;-75
2024/03/15 11:20:56;;;;;;;14.35;7.22;;;;;;;16.37;49.58;97358.28;4965827;28;20037;-74
2024/03/15 11:23:28;;;;;;;14.07;8.18;;;;;;;16.25;49.23;97348.56;4950559;28;20031;-75
2024/03/15 11:26:18;;;;;;;11.10;6.88;;;;;;;16.18;49.46;97363.59;4948409;28;20053;-75
2024/03/15 11:28:54;;;;;;;11.95;6.18;;;;;;;15.81;50.48;97349.72;4948113;28;20053;-75
2024/03/15 11:31:28;;;;;;;10.68;6.10;;;;;;;15.86;50.29;97363.69;4960069;28;20035;-75
2024/03/15 11:34:17;;;;;;;10.48;5.90;;;;;;;16.00;49.13;97357.06;4937835;28;20058;-74
2024/03/15 11:36:45;;;;;;;11.48;5.95;;;;;;;15.79;50.84;97373.28;4950528;28;20050;-75
2024/03/15 11:39:26;;;;;;;11.35;6.25;;;;;;;15.75;50.70;97363.72;4942138;28;20050;-75
2024/03/15 11:42:04;;;;;;;8.98;5.57;;;;;;;15.34;51.33;97367.22;4960159;28;20360;-75
2024/03/15 11:44:36;;;;;;;11.30;6.60;;;;;;;15.51;51.41;97364.00;4940419;29;20035;-74
2024/03/15 11:47:24;;;;;;;16.23;6.82;;;;;;;15.37;52.22;97371.50;4968162;28;20037;-74
2024/03/15 11:50:01;;;;;;;8.02;5.43;;;;;;;15.50;50.42;97361.44;4945594;28;20239;-74
2024/03/15 11:52:33;;;;;;;9.65;6.13;;;;;;;15.50;50.79;97362.31;4943567;28;20041;-75
2024/03/15 11:55:18;;;;;;;;;;;;;;;;;;;;;
2024/03/15 11:57:49;;;;;;;10.40;5.80;;;;;;;15.55;49.84;97354.66;4957570;28;20487;-75
2024/03/15 12:00:25;;;;;;;8.32;5.47;;;;;;;15.35;50.46;97354.63;4953984;28;20031;-74
2024/03/15 12:02:56;;;;;;;9.80;5.60;;;;;;;15.41;50.57;97359.50;4937924;28;20110;-75
2024/03/15 12:05:25;;;;;;;14.75;6.57;;;;;;;15.51;50.69;97358.59;4963981;28;20105;-74
2024/03/15 12:08:05;;;;;;;16.35;6.88;;;;;;;15.63;51.66;97365.63;4967843;28;20518;-75
2024/03/15 12:10:33;;;;;;;9.30;5.78;;;;;;;15.92;48.29;97348.81;4959272;28;20031;-73
2024/03/15 12:13:23;;;;;;;8.85;5.72;;;;;;;16.08;48.25;97351.88;4951179;28;20034;-74
2024/03/15 12:15:58;;;;;;;10.15;6.20;;;;;;;16.43;48.91;97357.72;4966040;28;20023;-75
2024/03/15 12:18:29;;;;;;;10.32;6.32;;;;;;;16.48;48.60;97352.78;4965721;28;20042;-75
2024/03/15 12:21:15;;;;;;;14.30;6.80;;;;;;;18.49;47.10;97346.59;4956044;28;20113;-75
2024/03/15 12:23:43;;;;;;;11.30;6.90;;;;;;;20.30;42.77;97326.41;4943034;28;20042;-74
2024/03/15 12:26:26;;;;;;;10.05;5.22;;;;;;;20.84;39.43;97326.00;4935107;28;20032;-75
2024/03/15 12:28:58;;;;;;;10.45;5.43;;;;;;;19.14;41.40;97328.41;4964556;28;20053;-74
2024/03/15 12:31:50;;;;;;;12.20;5.07;;;;;;;18.89;43.48;97336.28;4966925;28;20063;-77
2024/03/15 12:34:25;;;;;;;;;;;;;;;;;;;;;
2024/03/15 12:37:27;;;;;;;6.65;4.20;;;;;;;18.66;45.57;97340.41;4954700;28;20024;-76